Login to view products.  
Wednesday, December 13, 2017 (12:52 UTC)
Abu Dhabi International Airport
Last Updated: 13-Dec-2017 (12:52Z)
Wind Dir/Speed: WNW at 09 kt
Temperature: 23.3°C
Rel. Humidity: 58 %
Pressure: 1015.4 hPa
Visibility: 10000 m
ACTUALS
  • METAR OMAA 131300Z 32009KT 9999 SCT040 24/15 Q1015 NOSIG
  • TAF OMAA 131100Z 1312/1418 35007KT 8000 FEW035 BECMG 1320/1322 08006KT BECMG 1402/1404 17006KT BECMG 1413/1415 VRB02KT=